createdAt,value
2023-03-24T00:02:00.140Z,61.65
2023-03-24T00:04:32.995Z,61.76
2023-03-24T00:07:05.124Z,61.50
2023-03-24T00:09:37.705Z,61.54
2023-03-24T00:12:11.733Z,61.45
2023-03-24T00:14:45.588Z,61.60
2023-03-24T00:17:19.174Z,61.83
2023-03-24T00:19:51.335Z,61.97
2023-03-24T00:22:23.513Z,62.14
2023-03-24T00:24:55.980Z,62.31
2023-03-24T00:27:29.590Z,62.45
2023-03-24T00:30:03.488Z,62.37
2023-03-24T00:32:38.403Z,62.39
2023-03-24T00:35:12.998Z,62.31
2023-03-24T00:37:46.077Z,62.26
2023-03-24T00:40:21.014Z,62.34
2023-03-24T00:42:53.400Z,62.38
2023-03-24T00:45:26.203Z,62.29
2023-03-24T00:47:58.556Z,62.34
2023-03-24T00:50:32.217Z,62.31
2023-03-24T00:53:04.335Z,62.29
2023-03-24T00:55:38.135Z,62.34
2023-03-24T00:58:10.377Z,62.39
2023-03-24T01:00:42.752Z,62.25
2023-03-24T01:03:15.556Z,62.28
2023-03-24T01:05:48.630Z,62.35
2023-03-24T01:08:21.801Z,62.29
2023-03-24T01:10:54.253Z,62.37
2023-03-24T01:13:29.419Z,62.28
2023-03-24T01:16:01.441Z,62.30
2023-03-24T01:18:35.052Z,62.22
2023-03-24T01:21:07.553Z,62.20
2023-03-24T01:23:42.069Z,62.11
2023-03-24T01:26:14.180Z,62.04
2023-03-24T01:28:46.236Z,62.01
2023-03-24T01:31:18.215Z,62.13
2023-03-24T01:33:50.497Z,62.99
2023-03-24T01:36:22.764Z,63.50
2023-03-24T01:38:54.753Z,63.60
2023-03-24T01:41:28.976Z,65.08
2023-03-24T01:44:01.676Z,65.70
2023-03-24T01:46:34.308Z,65.90
2023-03-24T01:49:08.694Z,66.16
2023-03-24T01:51:46.261Z,66.17
2023-03-24T01:54:45.248Z,65.81
2023-03-24T01:57:29.892Z,66.00
2023-03-24T02:00:05.321Z,65.63
2023-03-24T02:02:49.764Z,65.40
2023-03-24T02:05:26.593Z,65.13
2023-03-24T02:08:07.478Z,65.15
2023-03-24T02:10:39.883Z,65.09
2023-03-24T02:13:12.497Z,65.15
2023-03-24T02:15:51.160Z,64.98
2023-03-24T02:18:29.138Z,64.90
2023-03-24T02:21:13.395Z,64.47
2023-03-24T02:24:00.551Z,64.25
2023-03-24T02:26:47.382Z,63.80
2023-03-24T02:29:47.858Z,63.56
2023-03-24T02:32:46.651Z,63.38
2023-03-24T02:35:21.603Z,63.12
2023-03-24T02:38:05.458Z,62.96
2023-03-24T02:40:40.585Z,63.07
2023-03-24T02:43:38.141Z,62.88
2023-03-24T02:46:22.091Z,62.87
2023-03-24T02:49:13.486Z,62.80
2023-03-24T02:52:06.785Z,62.66
2023-03-24T02:54:55.027Z,62.55
2023-03-24T02:57:41.611Z,62.29
2023-03-24T03:00:42.181Z,62.32
2023-03-24T03:03:24.411Z,62.20
2023-03-24T03:06:00.799Z,62.29
2023-03-24T03:08:35.177Z,62.22
2023-03-24T03:11:09.830Z,62.20
2023-03-24T03:13:47.398Z,62.01
2023-03-24T03:16:28.331Z,62.17
2023-03-24T03:19:03.588Z,62.05
2023-03-24T03:21:39.261Z,62.12
2023-03-24T03:24:15.617Z,62.24
2023-03-24T03:26:49.649Z,62.05
2023-03-24T03:29:24.152Z,62.21
2023-03-24T03:32:01.914Z,62.07
2023-03-24T03:35:09.324Z,61.26
2023-03-24T03:38:04.300Z,61.72
2023-03-24T03:40:56.948Z,61.99
2023-03-24T03:43:33.179Z,62.33
2023-03-24T03:46:09.272Z,63.45
2023-03-24T03:48:42.721Z,64.50
2023-03-24T03:51:16.349Z,65.33
2023-03-24T03:53:53.298Z,66.10
2023-03-24T03:56:29.435Z,67.32
2023-03-24T03:59:08.653Z,68.20
2023-03-24T04:01:42.397Z,69.00
2023-03-24T04:04:28.106Z,69.60
2023-03-24T04:07:28.632Z,70.51
2023-03-24T04:10:08.713Z,71.54
2023-03-24T04:13:05.739Z,71.62
2023-03-24T04:15:57.920Z,72.19
2023-03-24T04:19:07.108Z,72.81
2023-03-24T04:21:52.045Z,73.25
2023-03-24T04:24:36.656Z,73.96
2023-03-24T04:27:25.986Z,74.65
2023-03-24T04:30:23.640Z,75.36
2023-03-24T04:33:01.742Z,75.60
2023-03-24T04:35:42.654Z,76.30
2023-03-24T04:38:26.563Z,76.45
2023-03-24T04:41:02.068Z,76.75
2023-03-24T04:43:38.375Z,77.09
2023-03-24T04:46:12.697Z,77.56
2023-03-24T04:48:52.794Z,78.25
2023-03-24T04:51:30.007Z,78.27
2023-03-24T04:54:08.325Z,78.77
2023-03-24T04:56:56.037Z,78.66
2023-03-24T04:59:31.429Z,78.79
2023-03-24T05:02:04.628Z,79.31
2023-03-24T05:04:38.536Z,79.39
2023-03-24T05:07:20.270Z,79.07
2023-03-24T05:09:54.332Z,79.45
2023-03-24T05:12:26.708Z,79.63
2023-03-24T05:15:01.320Z,79.84
2023-03-24T05:17:34.439Z,80.41
2023-03-24T05:20:11.912Z,80.89
2023-03-24T05:22:46.821Z,80.83
2023-03-24T05:25:20.716Z,81.10
2023-03-24T05:27:53.729Z,80.32
2023-03-24T05:30:27.820Z,80.56
2023-03-24T05:33:02.010Z,80.78
2023-03-24T05:35:34.548Z,80.24
2023-03-24T05:38:06.962Z,80.43
2023-03-24T05:40:39.505Z,80.99
2023-03-24T05:43:16.791Z,81.40
2023-03-24T05:45:50.970Z,81.50
2023-03-24T05:48:31.077Z,81.17
2023-03-24T05:51:05.347Z,81.47
2023-03-24T05:53:37.780Z,81.56
2023-03-24T05:56:15.061Z,82.08
2023-03-24T05:59:06.051Z,82.28
2023-03-24T06:01:45.673Z,81.85
2023-03-24T06:04:21.071Z,81.92
2023-03-24T06:06:56.040Z,81.96
2023-03-24T06:09:33.118Z,82.57
2023-03-24T06:12:07.519Z,82.54
2023-03-24T06:14:41.464Z,82.48
2023-03-24T06:17:15.881Z,82.67
2023-03-24T06:19:50.239Z,82.54
2023-03-24T06:22:43.517Z,82.54
2023-03-24T06:25:24.457Z,83.09
2023-03-24T06:27:59.973Z,82.67
2023-03-24T06:30:32.424Z,82.84
2023-03-24T06:33:07.107Z,82.55
2023-03-24T06:35:39.803Z,82.76
2023-03-24T06:38:14.426Z,82.83
2023-03-24T06:40:47.132Z,83.25
2023-03-24T06:43:19.834Z,83.46
2023-03-24T06:45:52.466Z,83.87
2023-03-24T06:48:26.791Z,83.20
2023-03-24T06:51:02.067Z,82.85
2023-03-24T06:53:34.640Z,82.98
2023-03-24T06:56:07.781Z,82.88
2023-03-24T06:58:41.097Z,82.91
2023-03-24T07:01:15.081Z,82.28
2023-03-24T07:04:01.462Z,82.06
2023-03-24T07:06:50.918Z,82.20
2023-03-24T07:09:14.726Z,82.14
2023-03-24T07:11:47.428Z,82.68
2023-03-24T07:14:22.268Z,82.33
2023-03-24T07:16:55.202Z,82.74
2023-03-24T07:19:31.381Z,82.80
2023-03-24T07:22:04.804Z,83.41
2023-03-24T07:24:38.688Z,82.78
2023-03-24T07:27:12.649Z,83.21
2023-03-24T07:29:45.303Z,82.63
2023-03-24T07:32:25.061Z,82.17
2023-03-24T07:34:58.425Z,82.44
2023-03-24T07:37:30.980Z,82.31
2023-03-24T07:40:04.828Z,82.87
2023-03-24T07:42:37.033Z,83.14
2023-03-24T07:45:27.631Z,82.68
2023-03-24T07:48:04.924Z,82.32
2023-03-24T07:50:40.414Z,83.04
2023-03-24T07:53:18.834Z,83.67
2023-03-24T07:55:51.338Z,83.43
2023-03-24T07:58:26.849Z,83.28
2023-03-24T08:01:14.164Z,83.61
2023-03-24T08:03:49.550Z,83.28
2023-03-24T08:06:23.692Z,83.53
2023-03-24T08:08:57.036Z,82.96
2023-03-24T08:11:30.137Z,82.95
2023-03-24T08:14:03.432Z,83.11
2023-03-24T08:16:36.669Z,83.58
2023-03-24T08:19:09.411Z,83.88
2023-03-24T08:21:41.829Z,83.76
2023-03-24T08:24:13.953Z,83.73
2023-03-24T08:26:46.895Z,83.17
2023-03-24T08:29:19.083Z,83.75
2023-03-24T08:31:51.163Z,83.20
2023-03-24T08:34:25.180Z,83.01
2023-03-24T08:36:57.571Z,83.71
2023-03-24T08:39:31.212Z,83.79
2023-03-24T08:42:03.631Z,84.39
2023-03-24T08:44:36.067Z,83.61
2023-03-24T08:47:08.064Z,82.72
2023-03-24T08:49:40.322Z,82.52
2023-03-24T08:52:12.712Z,82.24
2023-03-24T08:54:44.885Z,82.76
2023-03-24T08:57:18.063Z,83.19
2023-03-24T08:59:51.511Z,83.75
2023-03-24T09:02:24.222Z,83.20
2023-03-24T09:04:56.928Z,84.03
2023-03-24T09:07:28.938Z,83.90
2023-03-24T09:10:01.197Z,83.72
2023-03-24T09:12:33.604Z,83.59
2023-03-24T09:15:10.100Z,83.17
2023-03-24T09:17:43.868Z,82.92
2023-03-24T09:20:17.782Z,83.02
2023-03-24T09:22:50.161Z,83.04
2023-03-24T09:25:23.537Z,82.10
2023-03-24T09:27:57.171Z,83.12
2023-03-24T09:30:31.319Z,82.94
2023-03-24T09:33:05.267Z,82.69
2023-03-24T09:35:37.529Z,82.05
2023-03-24T09:38:11.221Z,83.38
2023-03-24T09:40:44.290Z,83.08
2023-03-24T09:43:24.981Z,82.82
2023-03-24T09:45:59.958Z,82.03
2023-03-24T09:48:44.244Z,81.82
2023-03-24T09:51:25.074Z,80.92
2023-03-24T09:54:03.081Z,80.99
2023-03-24T09:56:41.135Z,80.71
2023-03-24T09:59:35.987Z,81.59
2023-03-24T10:02:20.439Z,82.37
2023-03-24T10:04:52.669Z,82.06
2023-03-24T10:07:36.288Z,80.55
2023-03-24T10:10:16.947Z,81.01
2023-03-24T10:12:50.992Z,80.58
2023-03-24T10:15:37.364Z,81.77
2023-03-24T10:18:32.802Z,82.14
2023-03-24T10:21:13.962Z,82.38
2023-03-24T10:23:57.846Z,81.34
2023-03-24T10:26:50.327Z,81.61
2023-03-24T10:29:37.071Z,81.81
2023-03-24T10:32:24.478Z,81.79
2023-03-24T10:35:04.120Z,81.04
2023-03-24T10:37:36.968Z,79.88
2023-03-24T10:40:18.565Z,81.35
2023-03-24T10:43:06.940Z,81.29
2023-03-24T10:45:30.698Z,80.11
2023-03-24T10:48:04.643Z,79.89
2023-03-24T10:50:38.325Z,79.42
2023-03-24T10:53:18.786Z,77.29
2023-03-24T10:55:51.181Z,76.29
2023-03-24T10:58:38.049Z,76.49
2023-03-24T11:01:27.534Z,76.83
2023-03-24T11:04:07.687Z,75.12
2023-03-24T11:06:40.057Z,75.47
2023-03-24T11:09:18.290Z,77.26
2023-03-24T11:11:51.792Z,77.09
2023-03-24T11:14:27.265Z,74.87
2023-03-24T11:17:16.360Z,76.05
2023-03-24T11:19:56.787Z,76.68
2023-03-24T11:22:28.737Z,77.47
2023-03-24T11:25:01.290Z,74.99
2023-03-24T11:27:34.349Z,75.55
2023-03-24T11:30:08.473Z,73.21
2023-03-24T11:32:42.401Z,72.81
2023-03-24T11:35:17.998Z,71.46
2023-03-24T11:37:50.408Z,68.96
2023-03-24T11:40:25.552Z,70.34
2023-03-24T11:43:00.204Z,69.15
2023-03-24T11:45:44.209Z,67.64
2023-03-24T11:48:19.575Z,67.66
2023-03-24T11:50:53.862Z,68.08
2023-03-24T11:53:29.424Z,67.84
2023-03-24T11:56:16.191Z,68.30
2023-03-24T11:58:51.411Z,69.45
2023-03-24T12:01:29.307Z,68.97
2023-03-24T12:04:21.214Z,69.14
2023-03-24T12:07:14.790Z,68.52
2023-03-24T12:09:58.705Z,67.49
2023-03-24T12:12:45.191Z,66.27
2023-03-24T12:15:35.300Z,65.76
2023-03-24T12:18:15.841Z,66.67
2023-03-24T12:21:10.026Z,64.06
2023-03-24T12:23:54.179Z,64.96
2023-03-24T12:26:34.187Z,65.44
2023-03-24T12:29:24.379Z,64.25
2023-03-24T12:32:18.963Z,66.33
2023-03-24T12:35:03.077Z,65.61
2023-03-24T12:37:47.454Z,63.37
2023-03-24T12:40:37.729Z,62.45
2023-03-24T12:43:30.925Z,60.45
2023-03-24T12:46:17.835Z,60.26
2023-03-24T12:49:00.064Z,60.26
2023-03-24T12:51:54.603Z,59.67
2023-03-24T12:54:35.274Z,58.61
2023-03-24T12:57:10.272Z,55.25
2023-03-24T12:59:47.658Z,51.58
2023-03-24T13:02:46.547Z,50.82
2023-03-24T13:05:21.720Z,52.52
2023-03-24T13:07:58.124Z,54.06
2023-03-24T13:10:32.958Z,55.38
2023-03-24T13:13:14.761Z,53.36
2023-03-24T13:15:58.683Z,49.70
2023-03-24T13:18:50.597Z,43.58
2023-03-24T13:21:29.491Z,39.31
2023-03-24T13:24:12.876Z,37.13
2023-03-24T13:27:05.803Z,37.75
2023-03-24T13:29:48.435Z,37.46
2023-03-24T13:32:26.737Z,36.76
2023-03-24T13:35:34.545Z,35.03
2023-03-24T13:38:21.984Z,34.95
2023-03-24T13:40:56.526Z,36.82
2023-03-24T13:43:29.753Z,36.78
2023-03-24T13:46:10.065Z,36.99
2023-03-24T13:48:58.044Z,36.77
2023-03-24T13:51:35.323Z,37.16
2023-03-24T13:54:16.422Z,39.07
2023-03-24T13:56:57.623Z,41.30
2023-03-24T14:00:02.899Z,43.95
2023-03-24T14:02:54.234Z,46.36
2023-03-24T14:06:05.903Z,48.12
2023-03-24T14:08:56.454Z,51.48
2023-03-24T14:11:41.804Z,51.48
2023-03-24T14:14:20.740Z,52.82
2023-03-24T14:17:08.054Z,52.77
2023-03-24T14:20:05.403Z,52.86
2023-03-24T14:22:44.063Z,54.14
2023-03-24T14:25:24.926Z,55.94
2023-03-24T14:28:22.891Z,55.72
2023-03-24T14:31:16.163Z,56.80
2023-03-24T14:34:02.764Z,58.23
2023-03-24T14:36:41.242Z,59.32
2023-03-24T14:39:36.094Z,59.60
2023-03-24T14:42:30.491Z,59.75
2023-03-24T14:45:14.074Z,60.20
2023-03-24T14:47:43.352Z,59.76
2023-03-24T14:50:24.000Z,60.19
2023-03-24T14:53:01.723Z,60.74
2023-03-24T14:55:36.074Z,60.32
2023-03-24T14:58:36.060Z,60.83
2023-03-24T15:01:11.381Z,60.92
2023-03-24T15:03:48.354Z,60.59
2023-03-24T15:06:25.704Z,61.11
2023-03-24T15:09:01.354Z,61.31
2023-03-24T15:11:36.487Z,61.46
2023-03-24T15:14:16.073Z,61.97
2023-03-24T15:16:53.709Z,61.91
2023-03-24T15:19:31.528Z,62.48
2023-03-24T15:22:06.786Z,62.16
2023-03-24T15:24:40.294Z,62.49
2023-03-24T15:27:25.078Z,62.58
2023-03-24T15:30:00.413Z,62.97
2023-03-24T15:32:34.917Z,62.54
2023-03-24T15:35:09.401Z,62.69
2023-03-24T15:37:43.367Z,63.04
2023-03-24T15:40:32.782Z,62.90
2023-03-24T15:43:09.838Z,63.54
2023-03-24T15:45:57.803Z,63.03
2023-03-24T15:48:26.623Z,63.22
2023-03-24T15:51:04.305Z,63.12
2023-03-24T15:53:51.683Z,63.16
2023-03-24T15:56:32.050Z,63.05
2023-03-24T15:59:13.665Z,62.35
2023-03-24T16:01:46.328Z,62.86
2023-03-24T16:04:23.451Z,62.62
2023-03-24T16:06:58.075Z,62.55
2023-03-24T16:09:31.229Z,62.35
2023-03-24T16:12:05.843Z,62.40
2023-03-24T16:14:38.877Z,62.47
2023-03-24T16:17:11.352Z,62.32
2023-03-24T16:19:43.441Z,62.04
2023-03-24T16:22:15.485Z,62.02
2023-03-24T16:24:47.700Z,62.41
2023-03-24T16:27:20.046Z,62.37
2023-03-24T16:29:52.757Z,62.73
2023-03-24T16:32:24.987Z,62.80
2023-03-24T16:34:57.157Z,63.04
2023-03-24T16:37:29.175Z,63.32
2023-03-24T16:40:03.582Z,63.30
2023-03-24T16:42:34.587Z,63.00
2023-03-24T16:45:07.447Z,63.42
2023-03-24T16:47:39.972Z,63.60
2023-03-24T16:50:38.783Z,63.53
2023-03-24T16:53:11.163Z,63.15
2023-03-24T16:55:45.311Z,63.38
2023-03-24T16:58:18.389Z,63.47
2023-03-24T17:00:51.849Z,63.31
2023-03-24T17:03:24.433Z,62.86
2023-03-24T17:05:57.167Z,61.83
2023-03-24T17:08:30.219Z,61.31
2023-03-24T17:11:03.008Z,61.08
2023-03-24T17:13:35.479Z,61.68
2023-03-24T17:16:09.937Z,61.54
2023-03-24T17:18:42.261Z,61.84
2023-03-24T17:21:17.596Z,61.85
2023-03-24T17:23:51.051Z,62.45
2023-03-24T17:26:24.181Z,62.76
2023-03-24T17:28:56.812Z,63.23
2023-03-24T17:31:29.093Z,63.83
2023-03-24T17:34:08.537Z,64.00
2023-03-24T17:36:35.156Z,64.36
2023-03-24T17:39:08.924Z,64.63
2023-03-24T17:41:42.175Z,64.60
2023-03-24T17:44:14.331Z,65.08
2023-03-24T17:46:46.529Z,65.42
2023-03-24T17:49:18.639Z,65.36
2023-03-24T17:51:50.847Z,64.94
2023-03-24T17:54:23.095Z,64.61
2023-03-24T17:56:55.093Z,64.73
2023-03-24T17:59:27.186Z,64.96
2023-03-24T18:01:59.357Z,65.54
2023-03-24T18:04:33.121Z,65.67
2023-03-24T18:07:07.730Z,65.53
2023-03-24T18:09:44.389Z,66.21
2023-03-24T18:12:16.612Z,66.55
2023-03-24T18:14:48.762Z,66.73
2023-03-24T18:17:21.987Z,67.16
2023-03-24T18:19:54.264Z,67.49
2023-03-24T18:22:27.713Z,67.32
2023-03-24T18:25:01.415Z,67.89
2023-03-24T18:27:33.796Z,68.30
2023-03-24T18:30:07.724Z,68.55
2023-03-24T18:32:40.797Z,68.79
2023-03-24T18:35:17.852Z,69.17
2023-03-24T18:37:49.905Z,68.87
2023-03-24T18:40:22.080Z,69.09
2023-03-24T18:42:54.030Z,69.30
2023-03-24T18:45:26.442Z,69.18
2023-03-24T18:47:58.506Z,69.27
2023-03-24T18:50:30.666Z,69.34
2023-03-24T18:53:03.421Z,69.47
2023-03-24T18:55:35.778Z,69.73
2023-03-24T18:58:09.351Z,69.82
2023-03-24T19:00:43.181Z,69.96
2023-03-24T19:03:15.395Z,70.18
2023-03-24T19:05:49.716Z,70.34
2023-03-24T19:08:21.977Z,70.79
2023-03-24T19:10:58.112Z,70.52
2023-03-24T19:13:30.535Z,70.97
2023-03-24T19:16:02.713Z,71.37
2023-03-24T19:18:34.930Z,71.63
2023-03-24T19:21:07.932Z,71.76
2023-03-24T19:23:40.056Z,72.12
2023-03-24T19:26:12.575Z,72.37
2023-03-24T19:28:45.018Z,72.51
2023-03-24T19:31:19.290Z,73.01
2023-03-24T19:33:52.443Z,72.76
2023-03-24T19:36:26.414Z,72.70
2023-03-24T19:38:58.322Z,72.76
2023-03-24T19:41:30.489Z,72.90
2023-03-24T19:44:02.861Z,73.14
2023-03-24T19:46:34.981Z,73.27
2023-03-24T19:49:07.165Z,73.43
2023-03-24T19:51:39.220Z,73.66
2023-03-24T19:54:11.536Z,73.68
2023-03-24T19:56:43.673Z,73.78
2023-03-24T19:59:15.877Z,74.25
2023-03-24T20:01:48.125Z,74.41
2023-03-24T20:04:20.489Z,74.59
2023-03-24T20:06:52.803Z,74.85
2023-03-24T20:09:24.896Z,75.06
2023-03-24T20:11:57.025Z,75.31
2023-03-24T20:14:47.277Z,75.66
2023-03-24T20:17:21.621Z,75.98
2023-03-24T20:19:54.378Z,76.11
2023-03-24T20:22:26.097Z,75.97
2023-03-24T20:24:58.197Z,76.08
2023-03-24T20:27:30.998Z,76.44
2023-03-24T20:30:03.505Z,76.71
2023-03-24T20:32:35.998Z,76.92
2023-03-24T20:35:09.234Z,77.01
2023-03-24T20:37:41.538Z,76.96
2023-03-24T20:40:13.854Z,76.96
2023-03-24T20:42:46.188Z,77.19
2023-03-24T20:45:18.396Z,77.24
2023-03-24T20:47:50.873Z,77.16
2023-03-24T20:50:23.058Z,77.27
2023-03-24T20:52:54.978Z,77.36
2023-03-24T20:55:27.533Z,77.27
2023-03-24T20:58:01.371Z,77.21
2023-03-24T21:00:33.409Z,77.03
2023-03-24T21:03:06.263Z,76.85
2023-03-24T21:05:38.746Z,76.79
2023-03-24T21:08:10.728Z,76.66
2023-03-24T21:10:43.019Z,76.76
2023-03-24T21:13:16.958Z,76.75
2023-03-24T21:15:49.472Z,76.68
2023-03-24T21:18:22.118Z,76.79
2023-03-24T21:20:58.210Z,76.67
2023-03-24T21:23:37.986Z,76.63
2023-03-24T21:26:15.898Z,76.56
2023-03-24T21:28:47.879Z,76.37
2023-03-24T21:31:30.656Z,76.09
2023-03-24T21:34:02.644Z,75.99
2023-03-24T21:36:35.676Z,75.96
2023-03-24T21:39:09.308Z,75.81
2023-03-24T21:41:41.477Z,75.88
2023-03-24T21:44:13.533Z,75.74
2023-03-24T21:46:47.240Z,75.67
2023-03-24T21:49:19.389Z,75.52
2023-03-24T21:51:53.105Z,75.40
2023-03-24T21:54:26.922Z,75.24
2023-03-24T21:57:01.817Z,74.91
2023-03-24T21:59:34.041Z,74.84
2023-03-24T22:02:08.322Z,74.74
2023-03-24T22:04:41.823Z,74.82
2023-03-24T22:07:16.605Z,74.96
2023-03-24T22:09:50.306Z,74.82
2023-03-24T22:12:22.333Z,74.76
2023-03-24T22:14:54.375Z,74.65
2023-03-24T22:17:26.827Z,74.54
2023-03-24T22:19:59.103Z,74.44
2023-03-24T22:22:33.420Z,74.37
2023-03-24T22:25:07.246Z,74.22
2023-03-24T22:27:39.351Z,74.21
2023-03-24T22:30:13.068Z,74.17
2023-03-24T22:32:46.190Z,74.06
2023-03-24T22:35:18.533Z,73.97
2023-03-24T22:37:50.616Z,73.88
2023-03-24T22:40:22.975Z,73.94
2023-03-24T22:42:54.826Z,74.00
2023-03-24T22:45:27.174Z,74.22
2023-03-24T22:47:59.199Z,74.29
2023-03-24T22:50:31.668Z,74.44
2023-03-24T22:53:03.733Z,74.51
2023-03-24T22:55:35.847Z,74.67
2023-03-24T22:58:07.792Z,74.85
2023-03-24T23:00:41.152Z,75.07
2023-03-24T23:03:13.544Z,75.30
2023-03-24T23:05:47.165Z,75.30
2023-03-24T23:08:19.497Z,75.48
2023-03-24T23:10:51.807Z,75.66
2023-03-24T23:13:25.587Z,75.80
2023-03-24T23:15:57.819Z,75.85
2023-03-24T23:18:30.512Z,75.90
2023-03-24T23:21:11.247Z,76.09
2023-03-24T23:23:44.080Z,76.21
2023-03-24T23:26:26.505Z,76.13
2023-03-24T23:28:51.446Z,75.96
2023-03-24T23:31:26.338Z,75.99
2023-03-24T23:33:59.338Z,76.08
2023-03-24T23:36:32.986Z,75.96
2023-03-24T23:39:05.538Z,76.09
2023-03-24T23:41:37.708Z,76.01
2023-03-24T23:44:11.537Z,76.09
2023-03-24T23:46:43.549Z,76.03
2023-03-24T23:49:15.883Z,76.01
2023-03-24T23:51:47.892Z,76.15
2023-03-24T23:54:20.078Z,75.90
2023-03-24T23:56:53.909Z,75.90
2023-03-24T23:59:26.234Z,75.78
